Flight Track Log - Related Links

Times and Time Zones

All times are in EDT time to prevent confusion due to time zone crossing. See the SWA862 flight status page for this flight to view local times or setup timezone preferences in your user account.

Time Position Orientation Groundspeed Altitude Reporting Facility
EDT Latitude Longitude Course Direction KTS MPH feet Rate Location/Type
Thu 08:32:11 PM 35.8294 -78.8739 243° Southwest 231 266 3,000  Level Washington Center
Thu 08:32:51 PM 35.8319 -78.9303 273° West 283 326 5,100 3,300 Climbing Washington Center
Thu 08:33:51 PM 35.9003 -78.9511 346° North 219 252 8,500 2,800 Climbing Washington Center
Thu 08:34:51 PM 35.9753 -78.8850 35° Northeast 213 245 10,700 2,300 Climbing Washington Center
Thu 08:35:51 PM 36.0508 -78.7853 47° Northeast 293 337 13,100 2,800 Climbing Washington Center
Thu 08:36:51 PM 36.1286 -78.6831 47° Northeast 344 396 16,300 3,500 Climbing Washington Center
Thu 08:37:51 PM 36.2128 -78.5783 45° Northeast 387 445 20,100 3,350 Climbing Washington Center
Thu 08:38:51 PM 36.2903 -78.4756 47° Northeast 406 467 23,000 1,450 Climbing Washington Center
Thu 08:39:51 PM 36.3786 -78.3628 46° Northeast 426 490 23,000  Level Washington Center
Thu 08:40:51 PM 36.4711 -78.2419 46° Northeast 451 519 23,000  Level Washington Center
Thu 08:41:51 PM 36.5775 -78.1369 38° Northeast 472 543 23,000  Level Washington Center
Thu 08:42:51 PM 36.6961 -78.0606 27° Northeast 477 549 23,000  Level Washington Center
Thu 08:43:51 PM 36.8183 -77.9919 24° Northeast 477 549 23,000  Level Washington Center
Thu 08:44:51 PM 36.9367 -77.9175 27° Northeast 477 549 23,000  Level Washington Center
Thu 08:45:51 PM 37.0572 -77.8406 27° Northeast 472 543 23,000  Level Washington Center
Thu 08:46:51 PM 37.1775 -77.7683 26° Northeast 472 543 23,000  Level Washington Center
Thu 08:47:51 PM 37.2975 -77.6936 26° Northeast 472 543 23,000  Level Washington Center
Thu 08:48:51 PM 37.4178 -77.6183 26° Northeast 472 543 23,000  Level Washington Center
Thu 08:49:51 PM 37.5400 -77.5431 26° Northeast 472 543 23,000  Level Washington Center
Thu 08:50:51 PM 37.6558 -77.4700 27° Northeast 472 543 23,000  Level Washington Center
Thu 08:51:51 PM 37.7781 -77.3967 25° Northeast 467 537 23,000  Level Washington Center
Thu 08:52:51 PM 37.9039 -77.3444 18° North 467 537 23,000 -200 Level Washington Center
Thu 08:53:51 PM 38.0319 -77.2894 19° North 473 544 22,600 -1,650 Descending Washington Center
Thu 08:54:51 PM 38.1536 -77.2369 19° North 467 537 19,700 -3,000 Descending Washington Center
Thu 08:55:51 PM 38.2753 -77.1867 18° North 462 532 16,600 -2,900 Descending Washington Center
Thu 08:56:51 PM 38.3806 -77.1147 28° Northeast 444 511 13,900 -2,450 Descending Washington Center
Thu 08:57:51 PM 38.4569 -77.0022 49° Northeast 421 484 11,700 -1,550 Descending Washington Center
Thu 08:58:51 PM 38.5308 -76.9028 46° Northeast 400 460 10,800 -850 Descending Washington Center
Thu 08:59:51 PM 38.5922 -76.8161 48° Northeast 360 414 10,000 -1,150 Descending Washington Center
Thu 09:00:51 PM 38.6494 -76.7347 48° Northeast 324 373 8,500 -1,400 Descending Washington Center
Thu 09:01:51 PM 38.7086 -76.6558 46° Northeast 311 358 7,200 -1,314 Descending Washington Center
Thu 09:02:36 PM 38.7500 -76.5833 54° Northeast 297 342 6,200 -686 Descending Potomac TRACON
Thu 09:03:36 PM 38.8167 -76.5333 30° Northeast 291 335 6,000 -450 Descending Potomac TRACON
Thu 09:04:36 PM 38.8833 -76.5500 349° North 287 330 5,300 -500 Descending Potomac TRACON
Thu 09:05:36 PM 38.9667 -76.5833 343° North 277 319 5,000 -298 Descending Potomac TRACON
Thu 09:06:37 PM 39.0000 -76.6500 303° West 203 234 4,700 -496 Descending Potomac TRACON
Thu 09:07:37 PM 39.0167 -76.7167 288° West 188 216 4,000 -750 Descending Potomac TRACON
Thu 09:08:37 PM 39.0500 -76.7667 311° West 192 221 3,200 -952 Descending Potomac TRACON
Thu 09:09:43 PM 39.0833 -76.8333 303° West 197 227 2,000 -600 Descending Potomac TRACON
Thu 09:10:37 PM 39.1000 -76.9000 288° West 201 231 2,000  Level Potomac TRACON
Thu 09:11:43 PM 39.1167 -76.9667 288° West 204 235 2,000  Level Potomac TRACON
Thu 09:12:37 PM 39.1500 -77.0000 322° Northwest 204 235 2,000  Level Potomac TRACON
Thu 09:13:37 PM 39.1833 -76.9833 21° North 178 205 2,000  Level Potomac TRACON
Thu 09:14:43 PM 39.1833 -76.9167 90° East 157 181 2,000  Level Potomac TRACON
Thu 09:15:37 PM 39.1833 -76.8667 90° East 159 183 2,000  Level Potomac TRACON
Thu 09:16:37 PM 39.1833 -76.8167 90° East 160 184 2,000 -333 Level Potomac TRACON
Thu 09:17:43 PM 39.1833 -76.7667 90° East 121 139 1,300 -667 Descending Potomac TRACON
Thu 09:18:43 PM 39.1833 -76.7167 90° East 125 144 600 -700 Descending Potomac TRACON

Login

Don't have an account? Register now (free) for customized features, flight alerts, and more!